DXNG

Niamtougou International Airport

Niamtougou, Togo
METAR DXNG 220600Z 21003KT CAVOK 25/20 Q1013
Observed Flight Rules
Apr-22 @ 06:00 UTC (53 minutes ago) Visual Flight Rules
Wind Visibility Clouds
210° at 3 knots 10,000+ meters
  • Clear skies
Temperatures Readings
Current 25°C / 77°F
Dewpoint 20°C / 68°F
Humidity 74%
Altimeter 29.91" Hg
Pressure 1013 hPa
Elevation 343
METAR DXNG 220600Z 21003KT CAVOK 25/20 Q1013
Observed Flight Rules
Apr-22 @ 06:00 UTC
(53 minutes ago)
VFR
Wind Visibility
210° at 3 knots 10,000+ meters
Clouds
  • Clear skies
Temperature Dewpoint
25°C / 77°F 20°C / 68°F
Humidity Altimeter Pressure
74% 29.91" Hg 1013 hPa